createdAt,value
2022-08-26T00:02:10.225Z,5.60
2022-08-26T00:05:11.678Z,5.55
2022-08-26T00:08:15.395Z,7.85
2022-08-26T00:11:26.265Z,5.40
2022-08-26T00:14:30.133Z,6.75
2022-08-26T00:17:32.764Z,5.20
2022-08-26T00:20:34.879Z,6.32
2022-08-26T00:23:37.166Z,5.57
2022-08-26T00:26:39.258Z,6.73
2022-08-26T00:29:42.866Z,5.22
2022-08-26T00:32:44.572Z,7.30
2022-08-26T00:35:48.030Z,6.93
2022-08-26T00:38:50.011Z,6.03
2022-08-26T00:41:51.421Z,7.90
2022-08-26T00:44:53.782Z,5.77
2022-08-26T00:48:03.116Z,6.97
2022-08-26T00:51:29.672Z,5.87
2022-08-26T00:54:35.674Z,5.20
2022-08-26T00:57:37.806Z,5.60
2022-08-26T01:00:39.263Z,6.70
2022-08-26T01:03:41.944Z,6.67
2022-08-26T01:06:44.374Z,7.27
2022-08-26T01:09:46.322Z,5.47
2022-08-26T01:12:52.369Z,5.30
2022-08-26T01:15:57.384Z,7.50
2022-08-26T01:19:13.828Z,5.40
2022-08-26T01:22:50.288Z,5.23
2022-08-26T01:25:59.520Z,6.33
2022-08-26T01:29:05.257Z,5.00
2022-08-26T01:32:10.772Z,9.73
2022-08-26T01:35:12.217Z,5.73
2022-08-26T01:38:15.818Z,6.23
2022-08-26T01:41:20.008Z,6.10
2022-08-26T01:44:38.661Z,5.97
2022-08-26T01:47:42.564Z,5.67
2022-08-26T01:50:45.793Z,5.93
2022-08-26T01:53:47.472Z,7.93
2022-08-26T01:56:50.660Z,7.77
2022-08-26T01:59:56.357Z,6.00
2022-08-26T02:03:16.449Z,7.33
2022-08-26T02:06:19.681Z,10.63
2022-08-26T02:09:22.122Z,10.20
2022-08-26T02:12:25.775Z,10.10
2022-08-26T02:15:27.534Z,7.63
2022-08-26T02:18:33.048Z,6.77
2022-08-26T02:21:35.186Z,7.23
2022-08-26T02:24:54.318Z,6.47
2022-08-26T02:27:56.687Z,9.83
2022-08-26T02:30:58.134Z,7.50
2022-08-26T02:34:12.351Z,12.90
2022-08-26T02:37:14.440Z,8.10
2022-08-26T02:40:24.044Z,6.30
2022-08-26T02:43:31.637Z,7.83
2022-08-26T02:46:34.632Z,7.27
2022-08-26T02:49:41.932Z,6.13
2022-08-26T02:52:45.895Z,7.13
2022-08-26T02:55:49.416Z,7.60
2022-08-26T02:58:51.431Z,6.77
2022-08-26T03:01:56.111Z,6.43
2022-08-26T03:05:01.885Z,7.00
2022-08-26T03:08:04.194Z,9.10
2022-08-26T03:11:05.926Z,9.33
2022-08-26T03:14:07.916Z,6.83
2022-08-26T03:17:09.626Z,7.77
2022-08-26T03:20:11.692Z,8.70
2022-08-26T03:23:15.140Z,6.47
2022-08-26T03:26:16.837Z,7.30
2022-08-26T03:29:36.842Z,8.53
2022-08-26T03:32:39.134Z,6.33
2022-08-26T03:35:45.035Z,9.97
2022-08-26T03:38:46.496Z,8.07
2022-08-26T03:41:47.927Z,7.00
2022-08-26T03:44:49.905Z,7.27
2022-08-26T03:47:51.890Z,6.57
2022-08-26T03:50:54.493Z,6.67
2022-08-26T03:53:57.175Z,7.17
2022-08-26T03:56:58.706Z,8.03
2022-08-26T04:00:00.544Z,8.10
2022-08-26T04:03:02.042Z,7.97
2022-08-26T04:06:03.993Z,7.00
2022-08-26T04:09:13.292Z,6.73
2022-08-26T04:12:14.796Z,7.43
2022-08-26T04:15:17.776Z,8.17
2022-08-26T04:18:19.599Z,6.73
2022-08-26T04:21:21.417Z,11.07
2022-08-26T04:24:25.011Z,7.37
2022-08-26T04:27:26.516Z,9.10
2022-08-26T04:30:28.190Z,9.70
2022-08-26T04:33:32.549Z,8.57
2022-08-26T04:36:34.805Z,7.50
2022-08-26T04:39:37.212Z,9.20
2022-08-26T04:42:38.643Z,11.23
2022-08-26T04:45:41.537Z,10.43
2022-08-26T04:48:42.961Z,8.63
2022-08-26T04:51:44.389Z,7.90
2022-08-26T04:54:45.839Z,7.37
2022-08-26T04:57:47.453Z,7.17
2022-08-26T05:00:51.489Z,9.53
2022-08-26T05:03:52.942Z,10.50
2022-08-26T05:06:59.239Z,7.83
2022-08-26T05:10:04.679Z,9.37
2022-08-26T05:13:14.277Z,10.97
2022-08-26T05:16:17.278Z,10.87
2022-08-26T05:19:19.521Z,10.60
2022-08-26T05:22:21.284Z,8.90
2022-08-26T05:25:23.766Z,12.27
2022-08-26T05:28:30.052Z,8.03
2022-08-26T05:31:33.492Z,8.87
2022-08-26T05:34:34.972Z,13.47
2022-08-26T05:37:38.391Z,16.03
2022-08-26T05:40:42.964Z,10.50
2022-08-26T05:43:44.529Z,14.57
2022-08-26T05:46:46.054Z,8.83
2022-08-26T05:49:51.571Z,10.93
2022-08-26T05:52:53.255Z,9.53
2022-08-26T05:55:55.715Z,12.70
2022-08-26T05:58:58.373Z,11.60
2022-08-26T06:02:02.032Z,9.83
2022-08-26T06:05:03.656Z,9.07
2022-08-26T06:08:13.929Z,13.80
2022-08-26T06:11:19.048Z,10.27
2022-08-26T06:14:20.469Z,8.33
2022-08-26T06:17:21.919Z,12.20
2022-08-26T06:20:24.906Z,11.90
2022-08-26T06:23:48.358Z,10.97
2022-08-26T06:26:52.798Z,18.23
2022-08-26T06:29:54.692Z,19.30
2022-08-26T06:32:56.145Z,19.13
2022-08-26T06:35:58.378Z,19.97
2022-08-26T06:39:04.040Z,26.83
2022-08-26T06:42:06.177Z,26.93
2022-08-26T06:45:08.945Z,15.90
2022-08-26T06:48:10.870Z,33.43
2022-08-26T06:51:15.579Z,37.70
2022-08-26T06:54:17.624Z,27.73
2022-08-26T06:57:19.020Z,28.87
2022-08-26T07:00:21.650Z,16.30
2022-08-26T07:03:23.108Z,19.53
2022-08-26T07:06:25.580Z,22.03
2022-08-26T07:09:30.246Z,17.30
2022-08-26T07:12:31.933Z,14.07
2022-08-26T07:15:35.704Z,12.33
2022-08-26T07:18:38.015Z,13.73
2022-08-26T07:21:44.540Z,7.83
2022-08-26T07:24:45.988Z,13.20
2022-08-26T07:27:54.335Z,9.00
2022-08-26T07:30:56.027Z,16.63
2022-08-26T07:33:59.650Z,20.67
2022-08-26T07:37:02.161Z,19.13
2022-08-26T07:40:04.889Z,16.50
2022-08-26T07:43:07.730Z,17.67
2022-08-26T07:46:14.457Z,13.73
2022-08-26T07:49:18.943Z,12.73
2022-08-26T07:52:25.338Z,17.37
2022-08-26T07:55:28.888Z,18.40
2022-08-26T07:58:30.355Z,12.17
2022-08-26T08:01:33.109Z,9.93
2022-08-26T08:04:35.284Z,13.47
2022-08-26T08:07:44.964Z,15.20
2022-08-26T08:10:48.732Z,18.50
2022-08-26T08:13:55.968Z,16.10
2022-08-26T08:16:58.094Z,13.82
2022-08-26T08:19:59.942Z,11.25
2022-08-26T08:23:04.117Z,12.48
2022-08-26T08:26:09.058Z,18.52
2022-08-26T08:29:10.534Z,16.38
2022-08-26T08:32:11.968Z,16.48
2022-08-26T08:35:18.688Z,19.10
2022-08-26T08:38:20.208Z,15.07
2022-08-26T08:41:38.534Z,17.90
2022-08-26T08:44:44.472Z,18.98
2022-08-26T08:47:57.584Z,14.05
2022-08-26T08:51:16.609Z,12.30
2022-08-26T08:54:19.878Z,13.02
2022-08-26T08:57:53.810Z,18.00
2022-08-26T09:01:02.920Z,14.88
2022-08-26T09:04:32.526Z,15.43
2022-08-26T09:07:39.592Z,13.68
2022-08-26T09:10:46.990Z,23.40
2022-08-26T09:13:52.353Z,18.88
2022-08-26T09:17:10.187Z,17.15
2022-08-26T09:20:25.117Z,13.15
2022-08-26T09:23:27.048Z,25.45
2022-08-26T09:26:40.903Z,19.77
2022-08-26T09:29:44.729Z,20.48
2022-08-26T09:32:58.406Z,19.90
2022-08-26T09:36:22.861Z,11.98
2022-08-26T09:39:38.151Z,10.93
2022-08-26T09:42:39.641Z,10.35
2022-08-26T09:45:51.123Z,9.82
2022-08-26T09:48:54.416Z,9.38
2022-08-26T09:52:23.617Z,10.98
2022-08-26T09:55:26.160Z,12.93
2022-08-26T09:58:40.300Z,10.40
2022-08-26T10:01:44.983Z,11.43
2022-08-26T10:04:54.007Z,13.93
2022-08-26T10:07:56.845Z,14.65
2022-08-26T10:11:11.112Z,17.15
2022-08-26T10:14:28.601Z,12.80
2022-08-26T10:17:37.855Z,12.27
2022-08-26T10:20:50.140Z,10.73
2022-08-26T10:23:57.046Z,9.77
2022-08-26T10:27:10.463Z,9.43
2022-08-26T10:30:19.398Z,11.18
2022-08-26T10:33:21.082Z,11.00
2022-08-26T10:37:10.634Z,13.98
2022-08-26T10:40:13.755Z,7.80
2022-08-26T10:43:21.442Z,10.02
2022-08-26T10:46:28.413Z,9.50
2022-08-26T10:49:29.908Z,10.32
2022-08-26T10:52:57.841Z,11.27
2022-08-26T10:56:18.740Z,9.43
2022-08-26T10:59:53.405Z,7.88
2022-08-26T11:03:21.655Z,13.40
2022-08-26T11:06:27.826Z,10.30
2022-08-26T11:09:47.169Z,8.75
2022-08-26T11:13:01.660Z,8.13
2022-08-26T11:16:03.104Z,9.48
2022-08-26T11:19:09.408Z,12.52
2022-08-26T11:22:27.044Z,9.20
2022-08-26T11:25:30.909Z,11.40
2022-08-26T11:28:40.568Z,6.82
2022-08-26T11:31:48.821Z,8.18
2022-08-26T11:35:04.516Z,9.55
2022-08-26T11:38:29.499Z,11.68
2022-08-26T11:41:33.223Z,12.82
2022-08-26T11:44:41.190Z,8.50
2022-08-26T11:47:50.940Z,9.95
2022-08-26T11:51:05.086Z,6.18
2022-08-26T11:54:30.463Z,7.63
2022-08-26T11:57:46.907Z,6.30
2022-08-26T12:00:57.819Z,8.27
2022-08-26T12:04:00.392Z,6.95
2022-08-26T12:07:03.996Z,9.32
2022-08-26T12:10:10.766Z,8.48
2022-08-26T12:13:26.268Z,5.28
2022-08-26T12:16:31.191Z,5.53
2022-08-26T12:19:33.719Z,6.85
2022-08-26T12:22:36.033Z,5.55
2022-08-26T12:25:39.289Z,5.53
2022-08-26T12:29:20.004Z,6.75
2022-08-26T12:32:24.801Z,5.30
2022-08-26T12:35:28.644Z,7.05
2022-08-26T12:38:35.042Z,6.75
2022-08-26T12:41:52.977Z,8.35
2022-08-26T12:45:04.326Z,4.80
2022-08-26T12:48:08.805Z,7.07
2022-08-26T12:51:42.104Z,4.97
2022-08-26T12:55:02.398Z,5.47
2022-08-26T12:58:20.114Z,4.57
2022-08-26T13:01:23.427Z,6.70
2022-08-26T13:04:34.697Z,5.28
2022-08-26T13:07:36.537Z,5.25
2022-08-26T13:10:40.369Z,5.25
2022-08-26T13:13:41.846Z,6.63
2022-08-26T13:16:44.261Z,4.90
2022-08-26T13:19:45.845Z,5.63
2022-08-26T13:22:48.643Z,5.90
2022-08-26T13:26:00.079Z,5.28
2022-08-26T13:29:02.504Z,5.80
2022-08-26T13:32:06.400Z,5.95
2022-08-26T13:35:08.119Z,6.90
2022-08-26T13:38:14.702Z,5.47
2022-08-26T13:41:34.530Z,6.35
2022-08-26T13:44:38.802Z,7.90
2022-08-26T13:47:40.221Z,7.05
2022-08-26T13:50:41.859Z,7.15
2022-08-26T13:53:43.326Z,6.47
2022-08-26T13:56:45.072Z,4.80
2022-08-26T13:59:46.484Z,5.88
2022-08-26T14:02:48.457Z,5.38
2022-08-26T14:05:51.242Z,5.18
2022-08-26T14:08:52.749Z,5.32
2022-08-26T14:11:55.146Z,6.15
2022-08-26T14:14:57.922Z,5.00
2022-08-26T14:18:02.435Z,5.30
2022-08-26T14:21:06.870Z,9.43
2022-08-26T14:24:08.327Z,7.90
2022-08-26T14:27:10.715Z,13.32
2022-08-26T14:30:12.406Z,7.40
2022-08-26T14:33:15.013Z,8.57
2022-08-26T14:36:28.596Z,7.47
2022-08-26T14:39:30.160Z,7.18
2022-08-26T14:42:32.440Z,10.68
2022-08-26T14:48:46.679Z,7.82
2022-08-26T14:51:48.144Z,8.70
2022-08-26T14:54:52.784Z,10.20
2022-08-26T14:57:56.820Z,9.82
2022-08-26T15:00:58.275Z,7.80
2022-08-26T15:04:05.670Z,7.03
2022-08-26T15:07:07.744Z,9.82
2022-08-26T15:10:15.968Z,8.40
2022-08-26T15:13:17.424Z,7.13
2022-08-26T15:16:19.070Z,8.38
2022-08-26T15:19:22.545Z,7.97
2022-08-26T15:22:24.214Z,7.35
2022-08-26T15:25:31.024Z,9.82
2022-08-26T15:28:32.665Z,6.55
2022-08-26T15:31:34.407Z,6.68
2022-08-26T15:34:36.093Z,10.75
2022-08-26T15:37:38.828Z,7.57
2022-08-26T15:40:40.503Z,7.90
2022-08-26T15:43:42.126Z,8.90
2022-08-26T15:46:44.242Z,13.93
2022-08-26T15:49:45.863Z,11.52
2022-08-26T15:52:47.800Z,8.55
2022-08-26T15:55:49.996Z,6.23
2022-08-26T15:58:51.809Z,12.00
2022-08-26T16:01:59.375Z,14.07
2022-08-26T16:05:00.849Z,28.53
2022-08-26T16:08:03.465Z,22.73
2022-08-26T16:11:05.808Z,16.23
2022-08-26T16:14:07.744Z,13.43
2022-08-26T16:17:09.197Z,9.03
2022-08-26T16:20:10.826Z,9.10
2022-08-26T16:23:12.230Z,18.13
2022-08-26T16:26:20.446Z,15.60
2022-08-26T16:29:21.873Z,18.00
2022-08-26T16:32:23.280Z,12.67
2022-08-26T16:35:25.601Z,18.27
2022-08-26T16:38:27.089Z,14.17
2022-08-26T16:41:30.404Z,12.63
2022-08-26T16:44:44.127Z,8.77
2022-08-26T16:47:46.013Z,15.97
2022-08-26T16:50:47.473Z,15.23
2022-08-26T16:53:50.412Z,7.20
2022-08-26T16:56:51.837Z,9.77
2022-08-26T16:59:53.277Z,12.77
2022-08-26T17:02:56.213Z,9.67
2022-08-26T17:05:57.673Z,9.13
2022-08-26T17:08:59.086Z,16.57
2022-08-26T17:12:00.546Z,16.80
2022-08-26T17:15:03.664Z,11.50
2022-08-26T17:18:06.585Z,8.77
2022-08-26T17:21:12.268Z,9.43
2022-08-26T17:24:14.399Z,10.40
2022-08-26T17:27:15.827Z,7.03
2022-08-26T17:30:17.921Z,8.67
2022-08-26T17:33:24.677Z,8.47
2022-08-26T17:36:28.127Z,7.77
2022-08-26T17:39:29.862Z,11.03
2022-08-26T17:42:31.789Z,12.00
2022-08-26T17:45:33.549Z,13.50
2022-08-26T17:48:36.462Z,13.80
2022-08-26T17:51:37.946Z,11.43
2022-08-26T17:54:39.603Z,16.70
2022-08-26T17:57:42.310Z,12.50
2022-08-26T18:00:47.468Z,12.37
2022-08-26T18:03:49.590Z,12.73
2022-08-26T18:06:51.056Z,12.67
2022-08-26T18:09:52.500Z,10.17
2022-08-26T18:12:54.345Z,10.83
2022-08-26T18:15:55.897Z,9.93
2022-08-26T18:18:58.341Z,12.00
2022-08-26T18:21:59.829Z,10.83
2022-08-26T18:25:01.424Z,10.20
2022-08-26T18:28:03.073Z,11.20
2022-08-26T18:31:07.466Z,10.03
2022-08-26T18:34:12.782Z,10.27
2022-08-26T18:37:14.592Z,10.57
2022-08-26T18:40:17.366Z,9.93
2022-08-26T18:43:18.805Z,12.17
2022-08-26T18:46:24.780Z,11.20
2022-08-26T18:49:26.591Z,11.27
2022-08-26T18:52:28.161Z,12.00
2022-08-26T18:55:29.652Z,10.07
2022-08-26T18:58:31.108Z,10.27
2022-08-26T19:01:34.719Z,11.37
2022-08-26T19:04:38.431Z,10.50
2022-08-26T19:07:39.843Z,10.77
2022-08-26T19:10:41.724Z,10.90
2022-08-26T19:13:44.124Z,9.33
2022-08-26T19:16:47.845Z,9.53
2022-08-26T19:19:49.615Z,10.23
2022-08-26T19:22:51.081Z,11.07
2022-08-26T19:25:53.170Z,11.30
2022-08-26T19:28:54.795Z,10.47
2022-08-26T19:31:56.565Z,11.67
2022-08-26T19:34:58.010Z,8.77
2022-08-26T19:37:59.811Z,10.97
2022-08-26T19:41:01.256Z,9.50
2022-08-26T19:44:04.405Z,13.23
2022-08-26T19:47:08.884Z,13.43
2022-08-26T19:50:12.745Z,10.70
2022-08-26T19:53:15.294Z,15.20
2022-08-26T19:56:17.432Z,14.40
2022-08-26T19:59:18.988Z,10.27
2022-08-26T20:02:20.575Z,12.80
2022-08-26T20:05:23.775Z,12.63
2022-08-26T20:08:25.375Z,13.87
2022-08-26T20:11:27.121Z,11.70
2022-08-26T20:14:29.854Z,12.03
2022-08-26T20:17:32.298Z,11.00
2022-08-26T20:20:52.183Z,11.93
2022-08-26T20:24:00.514Z,11.73
2022-08-26T20:27:07.307Z,13.60
2022-08-26T20:30:10.267Z,12.93
2022-08-26T20:33:11.692Z,14.00
2022-08-26T20:36:15.015Z,13.10
2022-08-26T20:39:20.755Z,12.33
2022-08-26T20:42:22.201Z,12.80
2022-08-26T20:45:24.090Z,12.10
2022-08-26T20:48:25.526Z,12.80
2022-08-26T20:51:27.308Z,11.97
2022-08-26T20:54:29.501Z,12.27
2022-08-26T20:57:30.914Z,13.60
2022-08-26T21:00:32.366Z,13.70
2022-08-26T21:03:33.921Z,12.83
2022-08-26T21:06:36.247Z,14.77
2022-08-26T21:09:37.715Z,14.80
2022-08-26T21:12:39.828Z,15.23
2022-08-26T21:15:41.265Z,18.17
2022-08-26T21:18:42.706Z,13.47
2022-08-26T21:21:44.894Z,13.97
2022-08-26T21:24:46.498Z,13.90
2022-08-26T21:27:47.972Z,13.27
2022-08-26T21:30:49.416Z,14.33
2022-08-26T21:33:51.543Z,14.90
2022-08-26T21:36:52.958Z,14.07
2022-08-26T21:39:56.759Z,20.27
2022-08-26T21:42:58.200Z,16.97
2022-08-26T21:46:15.076Z,14.90
2022-08-26T21:49:16.697Z,16.90
2022-08-26T21:52:18.229Z,20.03
2022-08-26T21:55:19.669Z,16.30
2022-08-26T21:58:21.114Z,16.13
2022-08-26T22:01:25.197Z,16.93
2022-08-26T22:04:27.583Z,18.03
2022-08-26T22:07:29.165Z,18.73
2022-08-26T22:10:30.573Z,17.90
2022-08-26T22:13:34.501Z,18.43
2022-08-26T22:16:36.210Z,19.73
2022-08-26T22:19:39.134Z,21.27
2022-08-26T22:22:47.948Z,17.97
2022-08-26T22:25:50.139Z,18.03
2022-08-26T22:28:52.593Z,20.43
2022-08-26T22:32:01.788Z,16.30
2022-08-26T22:35:03.917Z,19.37
2022-08-26T22:38:25.785Z,18.40
2022-08-26T22:41:27.254Z,17.70
2022-08-26T22:44:28.789Z,15.10
2022-08-26T22:47:30.271Z,17.57
2022-08-26T22:50:32.074Z,19.60
2022-08-26T22:53:35.217Z,20.63
2022-08-26T22:56:38.729Z,18.73
2022-08-26T22:59:40.797Z,16.70
2022-08-26T23:02:43.881Z,19.10
2022-08-26T23:05:45.770Z,16.90
2022-08-26T23:08:47.424Z,15.93
2022-08-26T23:11:49.281Z,14.83
2022-08-26T23:14:50.704Z,16.33
2022-08-26T23:17:58.852Z,20.73
2022-08-26T23:21:00.885Z,17.80
2022-08-26T23:24:02.522Z,18.27
2022-08-26T23:27:04.652Z,16.63
2022-08-26T23:30:09.742Z,18.13
2022-08-26T23:33:11.168Z,17.43
2022-08-26T23:36:17.048Z,16.20
2022-08-26T23:39:20.053Z,21.40
2022-08-26T23:42:22.752Z,13.90
2022-08-26T23:45:26.146Z,16.20
2022-08-26T23:48:27.609Z,15.90
2022-08-26T23:51:47.548Z,18.33
2022-08-26T23:54:49.749Z,15.93
2022-08-26T23:57:51.156Z,18.33
